Frances Anne — WDE8555 — position and weather

sailwx.info

Track history (hours):
 
Tides and Currents Weather Stations Pressure Air Temp Water Temp Dewpoint Dewpoint Depression Visibility Wind Speed Wind Dir Waves Ship Positions

Frances Anne

Owner: Frances Anne Inc., West Creek, NJ. More information available from US FCC via Universal Licensing System and Coast Guard Vessel Documentation Center.

Last reported at 2015-Apr-17 10:31 UTC. Time now 2015-Apr-18 03:25 UTC.
Position N 39°18' W 072°21'.

Type: Fishing. MMSI: 367406910.

Date/timePositionNaut miles runAvg speedWind from/ knotsBaromVisibWave heightAir tempDewpointWater temp
2015-Apr-17 10:31N 39°18' W 072°21'2 1.8
2015-Apr-17 09:33N 39°18' W 072°23'4 0.1
2015-Apr-15 11:20N 39°18' W 072°19'5 6.3
2015-Apr-15 10:32N 39°23' W 072°18'3 2.8
2015-Apr-15 09:31N 39°26' W 072°19'1 0.6
2015-Apr-15 08:17N 39°27' W 072°19'0 0.4
2015-Apr-15 07:31N 39°27' W 072°18'5 0.3
2015-Apr-14 18:07N 39°23' W 072°16'3 0.5
2015-Apr-14 11:31N 39°20' W 072°18'4 3.7
2015-Apr-14 10:32N 39°23' W 072°16'3 2.4
2015-Apr-14 09:25N 39°21' W 072°18'1 1.6
2015-Apr-14 08:30N 39°20' W 072°20'2 1.6
2015-Apr-14 07:33N 39°19' W 072°21'2 1.6
2015-Apr-14 06:33N 39°17' W 072°22'2 1.4
2015-Apr-14 05:22N 39°16' W 072°23'2 1.4
2015-Apr-14 04:10N 39°15' W 072°24'1 0.7
2015-Apr-14 03:24N 39°14' W 072°24'5 5.2
2015-Apr-14 02:30N 39°17' W 072°20'0 0.5
2015-Apr-14 01:33N 39°18' W 072°20'4 1.6
2015-Apr-13 23:15N 39°20' W 072°17'1 2.0
2015-Apr-13 22:31N 39°22' W 072°16'3 2.8
2015-Apr-13 21:23N 39°19' W 072°18'1 1.3
2015-Apr-13 20:30N 39°18' W 072°18'4 4.1
2015-Apr-13 19:32N 39°21' W 072°16'6 5.7
2015-Apr-13 18:33N 39°17' W 072°20'2 1.7
2015-Apr-13 17:29N 39°19' W 072°19'4 2.2
2015-Apr-13 15:33N 39°22' W 072°16'1 0.2
2015-Apr-13 11:27N 39°21' W 072°16'4 0.9
2015-Apr-13 07:18N 39°19' W 072°20'1 0.8
2015-Apr-13 06:33N 39°19' W 072°20'1 0.8
2015-Apr-13 05:33N 39°18' W 072°21'1 0.8
2015-Apr-13 04:33N 39°18' W 072°22'2 0.7
2015-Apr-13 01:17N 39°18' W 072°19'2 2.9
2015-Apr-13 00:32N 39°20' W 072°17'2 1.3
2015-Apr-12 23:09N 39°21' W 072°16'3 0.1
2015-Apr-11 08:08N 39°22' W 072°20'1 1.0
2015-Apr-11 07:28N 39°23' W 072°20'1 0.9
2015-Apr-11 06:33N 39°22' W 072°21'2 1.3
2015-Apr-11 05:20N 39°22' W 072°23'2 1.5
2015-Apr-11 04:16N 39°21' W 072°25'6 0.8
2015-Apr-10 21:13N 39°19' W 072°19'3 0.1
2015-Apr-10 00:31N 39°17' W 072°21'4 2.8
2015-Apr-09 23:12N 39°20' W 072°18'3 2.8
2015-Apr-09 22:17N 39°22' W 072°15'2 2.9
2015-Apr-09 21:27N 39°24' W 072°15'2 1.5
2015-Apr-09 20:08N 39°26' W 072°16'2 3.0
2015-Apr-09 19:32N 39°25' W 072°15'4 1.4
2015-Apr-09 16:28N 39°20' W 072°17'6 2.7
2015-Apr-09 14:16N 39°26' W 072°17'  
Track history (hours):
 
Tides and Currents Weather Stations Pressure Air Temp Water Temp Dewpoint Dewpoint Depression Visibility Wind Speed Wind Dir Waves Ship Positions

Frances Anne

Owner: Frances Anne Inc., West Creek, NJ. More information available from US FCC via Universal Licensing System and Coast Guard Vessel Documentation Center.

Last reported at 2015-Apr-17 10:31 UTC. Time now 2015-Apr-18 03:25 UTC.
Position N 39°18' W 072°21'.

Type: Fishing. MMSI: 367406910.

Date/timePositionNaut miles runAvg speedWind from/ knotsBaromVisibWave heightAir tempDewpointWater temp
2015-Apr-17 10:31N 39°18' W 072°21'2 1.8
2015-Apr-17 09:33N 39°18' W 072°23'4 0.1
2015-Apr-15 11:20N 39°18' W 072°19'5 6.3
2015-Apr-15 10:32N 39°23' W 072°18'3 2.8
2015-Apr-15 09:31N 39°26' W 072°19'1 0.6
2015-Apr-15 08:17N 39°27' W 072°19'0 0.4
2015-Apr-15 07:31N 39°27' W 072°18'5 0.3
2015-Apr-14 18:07N 39°23' W 072°16'3 0.5
2015-Apr-14 11:31N 39°20' W 072°18'4 3.7
2015-Apr-14 10:32N 39°23' W 072°16'3 2.4
2015-Apr-14 09:25N 39°21' W 072°18'1 1.6
2015-Apr-14 08:30N 39°20' W 072°20'2 1.6
2015-Apr-14 07:33N 39°19' W 072°21'2 1.6
2015-Apr-14 06:33N 39°17' W 072°22'2 1.4
2015-Apr-14 05:22N 39°16' W 072°23'2 1.4
2015-Apr-14 04:10N 39°15' W 072°24'1 0.7
2015-Apr-14 03:24N 39°14' W 072°24'5 5.2
2015-Apr-14 02:30N 39°17' W 072°20'0 0.5
2015-Apr-14 01:33N 39°18' W 072°20'4 1.6
2015-Apr-13 23:15N 39°20' W 072°17'1 2.0
2015-Apr-13 22:31N 39°22' W 072°16'3 2.8
2015-Apr-13 21:23N 39°19' W 072°18'1 1.3
2015-Apr-13 20:30N 39°18' W 072°18'4 4.1
2015-Apr-13 19:32N 39°21' W 072°16'6 5.7
2015-Apr-13 18:33N 39°17' W 072°20'2 1.7
2015-Apr-13 17:29N 39°19' W 072°19'4 2.2
2015-Apr-13 15:33N 39°22' W 072°16'1 0.2
2015-Apr-13 11:27N 39°21' W 072°16'4 0.9
2015-Apr-13 07:18N 39°19' W 072°20'1 0.8
2015-Apr-13 06:33N 39°19' W 072°20'1 0.8
2015-Apr-13 05:33N 39°18' W 072°21'1 0.8
2015-Apr-13 04:33N 39°18' W 072°22'2 0.7
2015-Apr-13 01:17N 39°18' W 072°19'2 2.9
2015-Apr-13 00:32N 39°20' W 072°17'2 1.3
2015-Apr-12 23:09N 39°21' W 072°16'3 0.1
2015-Apr-11 08:08N 39°22' W 072°20'1 1.0
2015-Apr-11 07:28N 39°23' W 072°20'1 0.9
2015-Apr-11 06:33N 39°22' W 072°21'2 1.3
2015-Apr-11 05:20N 39°22' W 072°23'2 1.5
2015-Apr-11 04:16N 39°21' W 072°25'6 0.8
2015-Apr-10 21:13N 39°19' W 072°19'3 0.1
2015-Apr-10 00:31N 39°17' W 072°21'4 2.8
2015-Apr-09 23:12N 39°20' W 072°18'3 2.8
2015-Apr-09 22:17N 39°22' W 072°15'2 2.9
2015-Apr-09 21:27N 39°24' W 072°15'2 1.5
2015-Apr-09 20:08N 39°26' W 072°16'2 3.0
2015-Apr-09 19:32N 39°25' W 072°15'4 1.4
2015-Apr-09 16:28N 39°20' W 072°17'6 2.7
2015-Apr-09 14:16N 39°26' W 072°17'  

Dump ship's entire track history